createdAt,value
2023-11-18T08:39:35.512Z,23.38
2023-11-18T08:42:09.947Z,20.48
2023-11-18T08:44:41.173Z,20.23
2023-11-18T08:47:10.941Z,20.05
2023-11-18T08:49:42.721Z,21.52
2023-11-18T08:52:15.165Z,19.75
2023-11-18T08:55:04.345Z,19.65
2023-11-18T08:57:50.802Z,20.75
2023-11-18T09:00:40.065Z,21.75
2023-11-18T09:03:09.777Z,19.50
2023-11-18T09:05:39.065Z,24.10
2023-11-18T09:08:08.467Z,23.52
2023-11-18T09:10:37.667Z,23.40
2023-11-18T09:13:08.075Z,25.83
2023-11-18T09:15:39.397Z,28.45
2023-11-18T09:18:14.233Z,27.05
2023-11-18T09:20:44.222Z,34.10
2023-11-18T09:23:13.486Z,27.23
2023-11-18T09:25:42.958Z,28.60
2023-11-18T09:28:12.915Z,28.75
2023-11-18T09:30:51.805Z,27.33
2023-11-18T09:33:50.845Z,26.77
2023-11-18T09:36:20.877Z,28.55
2023-11-18T09:38:50.288Z,29.38
2023-11-18T09:41:19.883Z,29.92
2023-11-18T09:43:50.032Z,31.05
2023-11-18T09:46:26.570Z,28.27
2023-11-18T09:49:04.008Z,24.13
2023-11-18T09:51:37.579Z,22.63
2023-11-18T09:54:20.832Z,20.02
2023-11-18T09:56:59.451Z,20.52
2023-11-18T09:59:48.775Z,21.50
2023-11-18T10:02:21.224Z,21.70
2023-11-18T10:07:22.226Z,26.48
2023-11-18T10:09:52.052Z,26.10
2023-11-18T10:12:26.296Z,23.00
2023-11-18T10:14:56.563Z,22.58
2023-11-18T10:17:28.850Z,21.58
2023-11-18T10:20:14.901Z,21.13
2023-11-18T10:22:44.419Z,22.70
2023-11-18T10:25:15.868Z,24.15
2023-11-18T10:27:48.220Z,22.90
2023-11-18T10:30:23.997Z,25.45
2023-11-18T10:33:11.820Z,23.23
2023-11-18T10:35:42.841Z,25.48
2023-11-18T10:38:13.778Z,27.33
2023-11-18T10:40:44.396Z,25.33
2023-11-18T10:43:13.810Z,27.52
2023-11-18T10:45:45.741Z,26.23
2023-11-18T10:50:48.384Z,25.15
2023-11-18T10:53:18.084Z,24.65
2023-11-18T10:55:47.452Z,24.27
2023-11-18T10:58:16.838Z,24.60
2023-11-18T11:00:55.712Z,24.08
2023-11-18T11:03:28.170Z,23.45
2023-11-18T11:08:36.145Z,25.10
2023-11-18T11:11:12.368Z,24.48
2023-11-18T11:13:44.152Z,26.70
2023-11-18T11:16:15.478Z,25.87
2023-11-18T11:18:47.953Z,28.13
2023-11-18T11:21:18.763Z,26.83
2023-11-18T11:23:57.972Z,27.27
2023-11-18T11:26:37.152Z,29.50
2023-11-18T11:29:10.409Z,29.30
2023-11-18T11:31:46.869Z,30.73
2023-11-18T11:34:22.712Z,28.70
2023-11-18T11:36:53.640Z,31.42
2023-11-18T11:39:32.371Z,32.97
2023-11-18T11:42:02.091Z,30.23
2023-11-18T11:44:32.447Z,31.10
2023-11-18T11:47:03.385Z,31.88
2023-11-18T11:49:45.839Z,31.23
2023-11-18T11:52:30.801Z,30.67
2023-11-18T11:55:04.993Z,32.55
2023-11-18T11:57:40.874Z,33.67
2023-11-18T12:00:19.525Z,32.90
2023-11-18T12:02:52.667Z,33.20
2023-11-18T12:05:27.102Z,35.30
2023-11-18T12:07:57.996Z,35.88
2023-11-18T12:10:33.564Z,36.92
2023-11-18T12:13:22.197Z,39.42
2023-11-18T12:16:06.321Z,45.60
2023-11-18T12:18:39.144Z,47.53
2023-11-18T12:21:13.690Z,45.97
2023-11-18T12:24:03.104Z,45.30
2023-11-18T12:26:46.133Z,46.78
2023-11-18T12:29:35.274Z,47.45
2023-11-18T12:32:08.525Z,46.67
2023-11-18T12:34:56.715Z,50.78
2023-11-18T12:37:41.457Z,50.80
2023-11-18T12:40:15.571Z,49.85
2023-11-18T12:42:54.082Z,50.55
2023-11-18T12:45:46.324Z,54.50
2023-11-18T12:48:17.504Z,60.45
2023-11-18T12:50:48.142Z,59.30
2023-11-18T12:53:20.789Z,55.63
2023-11-18T12:58:20.539Z,59.70
2023-11-18T13:00:49.841Z,64.05
2023-11-18T13:03:20.170Z,72.30
2023-11-18T13:05:51.309Z,70.75
2023-11-18T13:08:24.852Z,75.18
2023-11-18T13:10:55.000Z,75.10
2023-11-18T13:13:25.279Z,77.30
2023-11-18T13:15:55.244Z,82.65
2023-11-18T13:18:25.402Z,80.35
2023-11-18T13:21:00.215Z,80.43
2023-11-18T13:23:29.913Z,77.75
2023-11-18T13:26:02.612Z,78.45
2023-11-18T13:28:32.151Z,75.53
2023-11-18T13:31:01.273Z,81.28
2023-11-18T13:33:30.808Z,81.55
2023-11-18T13:36:01.285Z,82.57
2023-11-18T13:38:31.784Z,80.95
2023-11-18T13:41:05.744Z,85.00
2023-11-18T13:43:44.718Z,85.18
2023-11-18T13:46:15.812Z,79.60
2023-11-18T13:48:51.596Z,86.10
2023-11-18T13:51:22.319Z,83.60
2023-11-18T13:53:51.690Z,90.30
2023-11-18T13:56:22.530Z,87.78
2023-11-18T13:58:52.441Z,85.80
2023-11-18T14:01:24.259Z,86.22
2023-11-18T14:03:54.300Z,86.35
2023-11-18T14:06:25.359Z,85.43
2023-11-18T14:08:54.984Z,82.70
2023-11-18T14:11:24.536Z,84.95
2023-11-18T14:13:56.159Z,85.97
2023-11-18T14:16:26.157Z,86.03
2023-11-18T14:18:55.785Z,92.28
2023-11-18T14:21:25.338Z,96.10
2023-11-18T14:23:58.494Z,100.78
2023-11-18T14:26:29.637Z,104.30
2023-11-18T14:29:01.374Z,101.18
2023-11-18T14:31:31.435Z,96.23
2023-11-18T14:34:01.279Z,98.25
2023-11-18T14:36:31.114Z,97.20
2023-11-18T14:39:05.390Z,98.13
2023-11-18T14:41:35.975Z,95.22
2023-11-18T14:44:07.248Z,100.30
2023-11-18T14:46:38.092Z,97.25
2023-11-18T14:49:09.098Z,95.15
2023-11-18T14:51:38.673Z,88.07
2023-11-18T14:54:11.201Z,90.55
2023-11-18T14:59:10.525Z,87.97
2023-11-18T15:01:39.824Z,86.28
2023-11-18T15:04:09.280Z,86.18
2023-11-18T15:06:40.409Z,87.93
2023-11-18T15:09:13.342Z,85.85
2023-11-18T15:11:46.269Z,85.65
2023-11-18T15:14:16.506Z,87.10
2023-11-18T15:16:46.097Z,88.03
2023-11-18T15:19:15.497Z,94.40
2023-11-18T15:21:44.969Z,91.72
2023-11-18T15:24:16.923Z,96.72
2023-11-18T15:26:48.537Z,93.88
2023-11-18T15:29:19.588Z,93.72
2023-11-18T15:31:48.767Z,98.90
2023-11-18T15:34:18.182Z,105.45
2023-11-18T15:36:49.405Z,99.68
2023-11-18T15:39:18.993Z,106.97
2023-11-18T15:41:48.427Z,109.07
2023-11-18T15:44:19.774Z,106.90
2023-11-18T15:46:52.428Z,109.30
2023-11-18T15:51:52.174Z,114.38
2023-11-18T15:54:21.416Z,112.03
2023-11-18T15:56:51.232Z,113.80
2023-11-18T15:59:20.622Z,111.00
2023-11-18T16:01:49.884Z,105.53
2023-11-18T16:04:20.427Z,104.90
2023-11-18T16:06:50.550Z,99.88
2023-11-18T16:09:20.633Z,96.57
2023-11-18T16:11:51.656Z,95.50
2023-11-18T16:14:23.481Z,96.15
2023-11-18T16:16:53.500Z,97.57
2023-11-18T16:19:24.385Z,101.65
2023-11-18T16:21:55.667Z,101.25
2023-11-18T16:24:25.215Z,101.80
2023-11-18T16:26:54.953Z,101.05
2023-11-18T16:29:24.290Z,99.18
2023-11-18T16:31:54.175Z,100.13
2023-11-18T16:34:25.407Z,96.97
2023-11-18T16:36:59.380Z,86.30
2023-11-18T16:39:28.896Z,82.28
2023-11-18T16:41:58.501Z,79.47
2023-11-18T16:44:28.215Z,79.65
2023-11-18T16:46:58.713Z,78.38
2023-11-18T16:49:29.292Z,85.30
2023-11-18T16:52:02.245Z,83.32
2023-11-18T16:54:39.104Z,80.47
2023-11-18T16:57:11.273Z,87.22
2023-11-18T16:59:41.309Z,89.00
2023-11-18T17:02:11.633Z,94.18
2023-11-18T17:04:42.921Z,103.00
2023-11-18T17:07:13.228Z,103.47
2023-11-18T17:09:43.711Z,102.30
2023-11-18T17:12:14.138Z,110.80
2023-11-18T17:14:43.686Z,109.13
2023-11-18T17:17:14.377Z,112.13
2023-11-18T17:19:44.533Z,108.10
2023-11-18T17:22:15.562Z,111.53
2023-11-18T17:24:44.981Z,109.45
2023-11-18T17:27:16.328Z,106.80
2023-11-18T17:29:46.283Z,107.97
2023-11-18T17:32:15.914Z,109.10
2023-11-18T17:34:45.148Z,108.15
2023-11-18T17:37:14.543Z,124.07
2023-11-18T17:39:43.777Z,139.98
2023-11-18T17:42:14.284Z,151.45
2023-11-18T17:44:43.737Z,121.05
2023-11-18T17:47:13.282Z,118.63
2023-11-18T17:49:42.780Z,112.78
2023-11-18T17:52:12.310Z,113.53
2023-11-18T17:54:43.500Z,112.63
2023-11-18T17:57:13.311Z,109.80
2023-11-18T17:59:42.711Z,111.32
2023-11-18T18:02:14.395Z,111.63
2023-11-18T18:04:43.883Z,114.18
2023-11-18T18:07:13.945Z,114.88
2023-11-18T18:09:43.257Z,120.50
2023-11-18T18:12:13.123Z,124.97
2023-11-18T18:14:42.526Z,121.95
2023-11-18T18:17:11.855Z,129.57
2023-11-18T18:19:41.320Z,124.63
2023-11-18T18:22:12.810Z,120.68
2023-11-18T18:24:42.228Z,122.55
2023-11-18T18:27:11.607Z,118.70
2023-11-18T18:29:41.078Z,121.00
2023-11-18T18:32:12.592Z,119.53
2023-11-18T18:34:42.250Z,123.50
2023-11-18T18:37:11.452Z,123.53
2023-11-18T18:39:40.762Z,126.00
2023-11-18T18:42:10.379Z,129.40
2023-11-18T18:44:40.391Z,131.85
2023-11-18T18:47:11.362Z,130.07
2023-11-18T18:49:40.955Z,126.80
2023-11-18T18:52:10.593Z,130.50
2023-11-18T18:54:39.818Z,126.18
2023-11-18T18:57:10.358Z,120.60
2023-11-18T18:59:40.062Z,119.95
2023-11-18T19:02:10.664Z,113.65
2023-11-18T19:04:40.171Z,115.70
2023-11-18T19:07:09.730Z,113.97
2023-11-18T19:09:39.156Z,118.82
2023-11-18T19:12:10.510Z,119.47
2023-11-18T19:14:40.224Z,121.93
2023-11-18T19:17:09.466Z,121.07
2023-11-18T19:19:39.427Z,126.43
2023-11-18T19:22:13.462Z,127.88
2023-11-18T19:24:51.158Z,128.38
2023-11-18T19:27:20.996Z,123.95
2023-11-18T19:29:53.573Z,130.57
2023-11-18T19:32:23.515Z,129.13
2023-11-18T19:34:54.123Z,129.00
2023-11-18T19:37:23.981Z,127.82
2023-11-18T19:39:54.992Z,120.97
2023-11-18T19:42:25.149Z,114.95
2023-11-18T19:44:56.058Z,107.35
2023-11-18T19:47:26.091Z,103.43
2023-11-18T19:49:56.274Z,102.57
2023-11-18T19:52:26.444Z,100.25
2023-11-18T19:54:56.397Z,101.63
2023-11-18T19:57:26.231Z,101.53
2023-11-18T19:59:56.161Z,101.57
2023-11-18T20:02:29.215Z,98.63
2023-11-18T20:05:01.252Z,101.18
2023-11-18T20:07:31.368Z,106.07
2023-11-18T20:10:01.425Z,109.68
2023-11-18T20:12:33.216Z,107.18
2023-11-18T20:15:03.561Z,105.95
2023-11-18T20:17:34.841Z,106.65
2023-11-18T20:20:08.492Z,105.38
2023-11-18T20:22:40.009Z,108.80
2023-11-18T20:25:10.676Z,109.97
2023-11-18T20:27:42.189Z,111.00
2023-11-18T20:30:13.838Z,103.55
2023-11-18T20:32:44.184Z,108.90
2023-11-18T20:35:15.225Z,112.43
2023-11-18T20:37:50.402Z,114.15
2023-11-18T20:40:23.686Z,113.28
2023-11-18T20:42:54.741Z,114.13
2023-11-18T20:45:25.285Z,121.53
2023-11-18T20:47:55.955Z,122.15
2023-11-18T20:50:27.973Z,121.13
2023-11-18T20:52:58.518Z,121.17
2023-11-18T20:55:28.481Z,122.63
2023-11-18T20:57:58.415Z,121.25
2023-11-18T21:00:28.071Z,130.00
2023-11-18T21:02:58.382Z,135.27
2023-11-18T21:05:28.776Z,135.82
2023-11-18T21:08:00.547Z,137.25
2023-11-18T21:10:31.920Z,143.07
2023-11-18T21:13:02.191Z,137.48
2023-11-18T21:15:32.460Z,140.50
2023-11-18T21:18:02.433Z,140.10
2023-11-18T21:20:32.923Z,140.95
2023-11-18T21:23:03.073Z,142.07
2023-11-18T21:25:33.624Z,140.68
2023-11-18T21:28:06.805Z,139.50
2023-11-18T21:30:37.006Z,138.43
2023-11-18T21:33:10.150Z,137.80
2023-11-18T21:35:42.071Z,135.95
2023-11-18T21:38:12.672Z,137.80
2023-11-18T21:40:42.930Z,135.05
2023-11-18T21:43:12.243Z,136.40
2023-11-18T21:45:42.071Z,136.10
2023-11-18T21:48:12.033Z,141.10
2023-11-18T21:50:44.942Z,137.20
2023-11-18T21:53:14.905Z,140.07
2023-11-18T21:55:45.016Z,135.90
2023-11-18T21:58:17.666Z,141.13
2023-11-18T22:00:47.131Z,138.75
2023-11-18T22:03:16.436Z,141.95
2023-11-18T22:05:47.510Z,143.30
2023-11-18T22:08:21.467Z,150.63
2023-11-18T22:10:50.995Z,146.32
2023-11-18T22:13:20.321Z,159.90
2023-11-18T22:15:49.606Z,169.10
2023-11-18T22:18:19.258Z,187.63
2023-11-18T22:20:48.418Z,182.32
2023-11-18T22:23:18.003Z,205.18
2023-11-18T22:25:50.796Z,220.75
2023-11-18T22:28:20.157Z,219.77
2023-11-18T22:30:50.158Z,228.52
2023-11-18T22:33:26.289Z,223.65
2023-11-18T22:35:56.122Z,220.77
2023-11-18T22:38:25.915Z,218.48
2023-11-18T22:40:55.159Z,217.30
2023-11-18T22:43:24.552Z,212.27
2023-11-18T22:45:53.976Z,208.30
2023-11-18T22:48:23.656Z,182.07
2023-11-18T22:50:52.889Z,166.32
2023-11-18T22:53:22.647Z,164.00
2023-11-18T22:55:53.418Z,160.80
2023-11-18T22:58:22.774Z,157.73
2023-11-18T23:00:57.428Z,164.85
2023-11-18T23:03:28.568Z,172.68
2023-11-18T23:06:09.990Z,172.77
2023-11-18T23:08:39.691Z,168.80
2023-11-18T23:11:09.029Z,180.52
2023-11-18T23:13:38.396Z,174.88
2023-11-18T23:16:14.025Z,185.90
2023-11-18T23:18:44.071Z,186.88
2023-11-18T23:21:13.526Z,191.23
2023-11-18T23:23:44.918Z,191.77
2023-11-18T23:26:14.712Z,188.35
2023-11-18T23:28:43.727Z,186.45
2023-11-18T23:31:13.905Z,196.63
2023-11-18T23:33:49.681Z,194.30
2023-11-18T23:36:20.078Z,188.57
2023-11-18T23:38:49.401Z,183.73
2023-11-18T23:41:18.425Z,179.13
2023-11-18T23:43:48.192Z,182.10
2023-11-18T23:46:17.679Z,177.30
2023-11-18T23:48:46.853Z,180.77
2023-11-18T23:51:16.249Z,180.95
2023-11-18T23:53:45.336Z,179.73
2023-11-18T23:56:14.658Z,182.48
2023-11-18T23:58:44.047Z,177.15
